Time;durP1;ratioP1;P1;durP2;ratioP2;P2;SDS_P1;SDS_P2;PMS_P1;PMS_P2;Temp;Humidity;BMP_temperature;BMP_pressure;BME280_temperature;BME280_humidity;BME280_pressure;Samples;Min_cycle;Max_cycle;Signal;HPM_P1;HPM_P2
2022/02/27 00:12:20;;;;;;;;;;;;;;;;;;;;;
2022/02/27 00:15:12;;;;;;;10.23;5.30;;;5.20;1.00;;;;;;5014071;28;20174;-90
2022/02/27 00:49:04;;;;;;;9.87;4.40;;;4.80;94.50;;;;;;5036094;28;20193;-90
2022/02/27 00:55:59;;;;;;;14.23;4.60;;;4.80;56.10;;;;;;4920513;29;20270;-91
2022/02/27 01:28:00;;;;;;;;;;;;;;;;;;;;;
2022/02/27 01:38:00;;;;;;;;;;;;;;;;;;;;;
2022/02/27 01:44:06;;;;;;;;;;;;;;;;;;;;;
2022/02/27 01:47:24;;;;;;;7.97;4.77;;;4.80;99.90;;;;;;4878364;29;20227;-90
2022/02/27 01:50:29;;;;;;;11.80;4.97;;;4.70;99.90;;;;;;4927568;29;20198;-90
2022/02/27 01:53:03;;;;;;;10.63;4.47;;;4.70;99.90;;;;;;4919644;29;20221;-90
2022/02/27 01:56:44;;;;;;;;;;;;;;;;;;;;;
2022/02/27 01:59:43;;;;;;;9.83;3.83;;;4.70;99.90;;;;;;4955263;28;20224;-90
2022/02/27 02:02:10;;;;;;;11.47;4.43;;;4.60;99.90;;;;;;4940356;29;20201;-91
2022/02/27 02:05:11;;;;;;;9.30;4.70;;;4.70;99.90;;;;;;5016995;28;20218;-91
2022/02/27 02:08:03;;;;;;;8.60;4.67;;;4.50;99.90;;;;;;5017208;28;20261;-91
2022/02/27 02:10:59;;;;;;;11.60;4.07;;;4.60;99.90;;;;;;5031120;28;20174;-91
2022/02/27 02:14:00;;;;;;;9.13;4.63;;;4.50;99.90;;;;;;5013732;28;20214;-90
2022/02/27 02:17:16;;;;;;;11.73;4.83;;;4.50;99.90;;;;;;5014703;28;20202;-91
2022/02/27 02:20:09;;;;;;;12.30;4.30;;;4.50;99.90;;;;;;5032410;28;20171;-91
2022/02/27 02:22:42;;;;;;;10.63;3.97;;;4.60;99.90;;;;;;5035700;28;20195;-90
2022/02/27 02:25:23;;;;;;;10.93;4.47;;;4.50;99.90;;;;;;5038567;28;20194;-90
2022/02/27 02:28:44;;;;;;;9.97;4.10;;;4.50;99.90;;;;;;5034010;28;20166;-93
2022/02/27 02:32:11;;;;;;;11.20;4.33;;;4.40;99.90;;;;;;5019394;28;20197;-91
2022/02/27 02:34:38;;;;;;;10.23;4.23;;;4.40;99.90;;;;;;4938943;29;20252;-91
2022/02/27 02:37:58;;;;;;;11.63;4.40;;;4.40;1.00;;;;;;4952402;29;20189;-89
2022/02/27 02:40:36;;;;;;;12.37;4.70;;;4.30;1.00;;;;;;4975213;28;20191;-91
2022/02/27 02:43:45;;;;;;;;;;;;;;;;;;;;;
2022/02/27 02:46:14;;;;;;;7.90;4.27;;;4.20;1.00;;;;;;4971370;29;20208;-90
2022/02/27 02:49:17;;;;;;;10.57;4.17;;;4.20;1.00;;;;;;4954295;28;20184;-91
2022/02/27 02:51:43;;;;;;;10.13;3.80;;;4.20;1.00;;;;;;5006687;28;20173;-91
2022/02/27 02:54:40;;;;;;;10.57;4.23;;;4.30;1.00;;;;;;5013145;28;20217;-90
2022/02/27 03:01:05;;;;;;;10.17;4.40;;;4.00;1.00;;;;;;5037089;28;20181;-90
2022/02/27 03:03:53;;;;;;;12.07;4.20;;;3.70;1.00;;;;;;5020256;28;20165;-90
2022/02/27 03:06:39;;;;;;;8.67;3.57;;;4.00;1.00;;;;;;5021140;28;20265;-90
2022/02/27 03:09:35;;;;;;;9.83;3.80;;;4.00;1.00;;;;;;5018369;28;20178;-90
2022/02/27 03:12:32;;;;;;;10.20;4.07;;;3.90;1.00;;;;;;5037878;28;20193;-92
2022/02/27 03:15:21;;;;;;;9.10;4.10;;;3.90;1.00;;;;;;5040809;28;20166;-91
2022/02/27 03:17:58;;;;;;;10.63;4.23;;;3.90;1.00;;;;;;5007304;28;20194;-90
2022/02/27 03:20:27;;;;;;;9.87;4.30;;;3.90;1.00;;;;;;5005644;28;20182;-91
2022/02/27 03:22:52;;;;;;;8.43;4.47;;;3.90;1.00;;;;;;5023104;28;20194;-91
2022/02/27 03:25:47;;;;;;;10.17;3.50;;;3.80;1.00;;;;;;5024320;28;20319;-91
2022/02/27 03:28:40;;;;;;;10.40;4.03;;;3.80;1.00;;;;;;5033385;28;20646;-91
2022/02/27 03:31:17;;;;;;;12.00;4.80;;;3.80;1.00;;;;;;5024981;28;20163;-90
2022/02/27 03:34:09;;;;;;;13.27;5.33;;;3.90;1.00;;;;;;5024565;28;20248;-90
2022/02/27 03:36:38;;;;;;;10.37;4.20;;;3.80;1.00;;;;;;5024669;28;20185;-91
2022/02/27 03:39:25;;;;;;;9.37;4.50;;;3.70;1.00;;;;;;5022034;28;20182;-90
2022/02/27 03:42:00;;;;;;;14.33;4.43;;;3.80;1.00;;;;;;5019679;28;20206;-90
2022/02/27 03:44:46;;;;;;;8.30;4.53;;;3.80;1.00;;;;;;5037273;28;20174;-91
2022/02/27 03:47:31;;;;;;;11.23;5.70;;;3.80;1.00;;;;;;5020770;28;20258;-92
2022/02/27 03:50:19;;;;;;;11.07;4.63;;;3.70;1.00;;;;;;5019119;28;20178;-90
2022/02/27 03:52:59;;;;;;;6.97;4.20;;;3.70;1.00;;;;;;5021170;28;20258;-90
2022/02/27 03:58:57;;;;;;;9.27;4.17;;;3.50;1.00;;;;;;5038331;28;20172;-91
2022/02/27 04:01:28;;;;;;;13.80;4.97;;;3.60;1.00;;;;;;5021715;28;20174;-91
2022/02/27 04:04:37;;;;;;;9.10;4.50;;;3.70;1.00;;;;;;5021931;28;20178;-90
2022/02/27 04:11:08;;;;;;;8.03;3.60;;;3.60;1.00;;;;;;5039658;28;20232;-90
2022/02/27 04:14:26;;;;;;;9.10;4.70;;;3.50;1.00;;;;;;5021531;28;20213;-90
2022/02/27 04:17:39;;;;;;;10.70;4.13;;;3.40;1.00;;;;;;5022873;28;20167;-90
2022/02/27 04:20:53;;;;;;;14.43;5.33;;;3.40;1.00;;;;;;5021639;28;20206;-91
2022/02/27 04:23:44;;;;;;;11.17;3.73;;;3.50;1.00;;;;;;5036455;28;20213;-90
2022/02/27 04:29:58;;;;;;;11.00;4.37;;;3.40;1.00;;;;;;5041437;28;20185;-90
2022/02/27 04:33:00;;;;;;;10.77;4.00;;;3.40;1.00;;;;;;5020320;28;20256;-90
2022/02/27 04:35:31;;;;;;;12.03;4.43;;;3.50;1.00;;;;;;5022533;28;20169;-91
2022/02/27 04:41:55;;;;;;;6.60;3.30;;;3.50;1.00;;;;;;5037520;28;20171;-90
2022/02/27 04:45:03;;;;;;;6.37;3.40;;;3.50;1.00;;;;;;5020981;28;20166;-90
2022/02/27 04:48:02;;;;;;;10.40;3.70;;;3.50;1.00;;;;;;5037163;28;20178;-90
2022/02/27 04:54:37;;;;;;;7.53;3.53;;;3.40;1.00;;;;;;5038211;28;20217;-91
2022/02/27 04:57:20;;;;;;;11.77;3.93;;;3.50;1.00;;;;;;5005769;28;20175;-90
2022/02/27 05:03:59;;;;;;;6.70;3.53;;;3.40;1.00;;;;;;5035213;28;20254;-90
2022/02/27 05:07:03;;;;;;;8.43;3.70;;;3.40;1.00;;;;;;5016616;28;20178;-91
2022/02/27 05:13:32;;;;;;;12.47;4.03;;;3.30;1.00;;;;;;5035651;28;20253;-89
2022/02/27 05:16:41;;;;;;;10.50;4.00;;;3.30;1.00;;;;;;5017836;28;20196;-91
2022/02/27 05:23:02;;;;;;;10.30;3.73;;;3.20;1.00;;;;;;5034964;28;20194;-90
2022/02/27 05:28:58;;;;;;;9.37;4.27;;;3.10;1.00;;;;;;5035238;28;20186;-89
2022/02/27 05:32:30;;;;;;;;;;;;;;;;;;;;;
2022/02/27 05:35:23;;;;;;;8.37;3.33;;;3.10;1.00;;;;;;5035567;28;20212;-89
2022/02/27 05:38:16;;;;;;;8.80;3.40;;;3.10;1.00;;;;;;5032156;28;20178;-91
2022/02/27 05:47:58;;;;;;;8.07;3.77;;;2.80;1.00;;;;;;5035327;28;20161;-90
2022/02/27 05:50:48;;;;;;;8.73;3.77;;;2.90;1.00;;;;;;5019270;28;20194;-90
2022/02/27 06:00:41;;;;;;;;;;;;;;;;;;;;;
2022/02/27 06:21:07;;;;;;;;;;;;;;;;;;;;;
2022/02/27 06:24:33;;;;;;;;;;;;;;;;;;;;;
2022/02/27 06:27:40;;;;;;;8.20;3.43;;;3.10;1.00;;;;;;4883251;29;20171;-90
2022/02/27 06:34:05;;;;;;;7.40;2.77;;;2.90;1.00;;;;;;4974474;29;20302;-90
2022/02/27 06:50:18;;;;;;;7.53;2.63;;;3.30;1.00;;;;;;4955775;29;20184;-90
2022/02/27 06:56:49;;;;;;;8.27;2.77;;;3.40;99.90;;;;;;4952227;29;20285;-90
2022/02/27 07:10:21;;;;;;;;;;;;;;;;;;;;;
2022/02/27 07:16:25;;;;;;;6.60;2.70;;;3.50;99.90;;;;;;4936849;29;20216;-90
2022/02/27 07:36:56;;;;;;;;;;;;;;;;;;;;;
2022/02/27 07:54:50;;;;;;;7.10;3.07;;;4.10;1.00;;;;;;4821600;29;20247;-90
2022/02/27 07:58:11;;;;;;;5.83;2.87;;;4.10;99.90;;;;;;4803155;29;20190;-90
2022/02/27 08:01:42;;;;;;;9.23;3.57;;;4.20;99.90;;;;;;4773168;30;20184;-89
2022/02/27 08:04:45;;;;;;;6.33;2.90;;;4.20;53.70;;;;;;4756602;30;20214;-90
2022/02/27 08:24:38;;;;;;;9.37;2.60;;;4.50;1.00;;;;;;4718961;30;20656;-89
2022/02/27 08:27:27;;;;;;;6.10;2.97;;;4.50;1.00;;;;;;4943497;28;20221;-90
2022/02/27 08:30:39;;;;;;;9.33;3.30;;;4.60;99.90;;;;;;5019652;28;20205;-89
2022/02/27 08:36:50;;;;;;;7.50;3.33;;;4.80;1.00;;;;;;4977872;29;20175;-90
2022/02/27 08:39:37;;;;;;;9.20;3.00;;;5.00;1.00;;;;;;4961429;29;20188;-90
2022/02/27 08:42:36;;;;;;;10.57;2.93;;;5.10;1.00;;;;;;5026346;28;20186;-90
2022/02/27 08:49:20;;;;;;;;;;;;;;;;;;;;;
2022/02/27 08:55:49;;;;;;;7.23;2.67;;;5.60;1.00;;;;;;5038492;28;20182;-89
2022/02/27 08:58:53;;;;;;;5.63;2.60;;;5.60;69.10;;;;;;5018067;28;20182;-90
2022/02/27 09:01:55;;;;;;;5.83;2.53;;;5.80;99.90;;;;;;5037603;28;20158;-89
2022/02/27 09:08:25;;;;;;;7.87;2.60;;;5.80;1.00;;;;;;5037886;28;20193;-90
2022/02/27 09:11:12;;;;;;;6.97;3.23;;;5.90;99.90;;;;;;5020757;28;20181;-89
2022/02/27 09:14:19;;;;;;;6.97;2.67;;;6.30;1.00;;;;;;5020175;28;20217;-90
2022/02/27 09:16:57;;;;;;;5.57;2.57;;;6.20;99.90;;;;;;5017935;28;20197;-90
2022/02/27 09:19:33;;;;;;;6.43;2.30;;;6.50;99.90;;;;;;5015024;28;20289;-90
2022/02/27 09:22:01;;;;;;;5.03;2.33;;;6.80;56.50;;;;;;5011708;28;20186;-89
2022/02/27 09:34:55;;;;;;;6.27;2.27;;;7.10;1.00;;;;;;4993325;28;20348;-90
2022/02/27 09:38:00;;;;;;;4.10;2.00;;;7.30;99.90;;;;;;4977678;28;20172;-90
2022/02/27 09:40:27;;;;;;;5.70;2.80;;;7.40;99.90;;;;;;4978083;28;20186;-90
2022/02/27 09:46:31;;;;;;;5.57;1.90;;;7.40;99.90;;;;;;4993993;28;20326;-90
2022/02/27 09:49:46;;;;;;;6.87;2.60;;;7.40;99.90;;;;;;4976721;28;20183;-90
2022/02/27 09:52:53;;;;;;;5.07;2.30;;;7.30;99.90;;;;;;4994522;28;20184;-90
2022/02/27 09:55:36;;;;;;;6.33;2.60;;;7.60;99.90;;;;;;4989932;28;20202;-89
2022/02/27 09:58:53;;;;;;;5.27;2.10;;;8.00;99.90;;;;;;4984458;28;20280;-89
2022/02/27 10:01:58;;;;;;;7.60;2.80;;;8.10;99.90;;;;;;5015402;28;20204;-90
2022/02/27 10:04:48;;;;;;;7.87;2.57;;;8.00;99.90;;;;;;5018479;28;20190;-90
2022/02/27 10:07:38;;;;;;;5.03;2.43;;;8.30;99.90;;;;;;5016310;28;20203;-90
2022/02/27 10:10:31;;;;;;;5.73;2.57;;;8.60;99.90;;;;;;5016143;28;20185;-91
2022/02/27 10:16:25;;;;;;;7.07;2.40;;;8.30;10.10;;;;;;5032387;28;20301;-89
2022/02/27 10:19:02;;;;;;;4.80;1.93;;;8.00;83.60;;;;;;5016241;28;20170;-90
2022/02/27 10:21:55;;;;;;;7.30;2.30;;;8.00;76.60;;;;;;5031117;28;20213;-91
2022/02/27 10:24:39;;;;;;;5.53;2.30;;;8.00;99.90;;;;;;5032381;28;20190;-90
2022/02/27 10:30:56;;;;;;;4.17;1.90;;;8.40;69.30;;;;;;5034366;28;20245;-90
2022/02/27 10:37:17;;;;;;;4.90;2.07;;;8.50;31.30;;;;;;5033310;28;20266;-90
2022/02/27 10:43:10;;;;;;;2.70;1.77;;;9.00;1.00;;;;;;5031420;28;20157;-90
2022/02/27 10:46:33;;;;;;;3.93;1.83;;;9.20;1.00;;;;;;4967962;28;20190;-89
2022/02/27 10:49:51;;;;;;;4.23;1.67;;;9.40;1.00;;;;;;5038062;28;20167;-92
2022/02/27 10:53:15;;;;;;;3.53;1.83;;;9.50;1.00;;;;;;5036127;28;20194;-89
2022/02/27 10:55:59;;;;;;;3.60;1.90;;;9.20;1.00;;;;;;5016854;28;20201;-90
2022/02/27 10:58:53;;;;;;;3.53;1.70;;;9.30;1.00;;;;;;5013262;28;20210;-90
2022/02/27 11:02:14;;;;;;;3.00;1.50;;;9.40;1.00;;;;;;5013192;28;20200;-90
2022/02/27 11:08:08;;;;;;;3.73;1.60;;;9.90;1.00;;;;;;5031967;28;20246;-89
2022/02/27 11:10:50;;;;;;;4.10;1.23;;;9.70;1.00;;;;;;5017806;28;20619;-90
2022/02/27 11:13:33;;;;;;;2.90;1.40;;;9.80;1.00;;;;;;5016962;28;20226;-91
2022/02/27 11:16:11;;;;;;;3.60;1.47;;;10.00;1.00;;;;;;5018688;28;20174;-90
2022/02/27 11:18:43;;;;;;;3.13;1.40;;;10.30;1.00;;;;;;5018090;28;20190;-91
2022/02/27 11:21:37;;;;;;;2.10;1.20;;;10.40;1.00;;;;;;5017100;28;20272;-90
2022/02/27 11:24:15;;;;;;;2.60;1.20;;;10.40;1.00;;;;;;5017475;28;20178;-89
2022/02/27 11:27:20;;;;;;;2.67;1.30;;;10.40;1.00;;;;;;5016431;28;20631;-90
2022/02/27 11:30:24;;;;;;;2.47;1.40;;;10.40;1.00;;;;;;5032720;28;20190;-90
2022/02/27 11:33:12;;;;;;;4.10;1.63;;;10.60;1.00;;;;;;4915965;29;20232;-89
2022/02/27 11:35:57;;;;;;;2.80;1.50;;;10.90;1.00;;;;;;5010244;28;20205;-90
2022/02/27 11:38:43;;;;;;;3.63;1.73;;;10.70;1.00;;;;;;5013043;28;20192;-90
2022/02/27 11:41:22;;;;;;;3.20;1.80;;;10.70;1.00;;;;;;5024129;28;20182;-88
2022/02/27 11:43:58;;;;;;;4.97;1.77;;;10.80;1.00;;;;;;5005406;28;20194;-91
2022/02/27 11:46:49;;;;;;;6.77;2.13;;;10.80;1.00;;;;;;5023369;28;20190;-90
2022/02/27 11:49:42;;;;;;;4.07;2.53;;;10.80;1.00;;;;;;5006166;28;20189;-90
2022/02/27 11:52:15;;;;;;;4.23;1.67;;;10.90;1.00;;;;;;5006756;28;20179;-90
2022/02/27 11:54:54;;;;;;;3.83;1.80;;;11.00;1.00;;;;;;5008295;28;20205;-90
2022/02/27 11:57:28;;;;;;;5.37;2.33;;;11.20;1.00;;;;;;5024466;28;20201;-91
2022/02/27 12:00:15;;;;;;;6.73;2.00;;;11.30;1.00;;;;;;5009380;28;20181;-90
2022/02/27 12:02:50;;;;;;;5.43;1.60;;;11.50;1.00;;;;;;5005844;28;20346;-91
2022/02/27 12:05:41;;;;;;;6.73;2.20;;;11.30;1.00;;;;;;5003646;28;20193;-90
2022/02/27 12:08:14;;;;;;;3.97;1.80;;;11.30;1.00;;;;;;5004517;28;20194;-90
2022/02/27 12:10:46;;;;;;;6.83;2.67;;;11.40;1.00;;;;;;5004594;28;20185;-91
2022/02/27 12:13:20;;;;;;;5.93;2.33;;;11.30;1.00;;;;;;5007275;28;20228;-91
2022/02/27 12:15:46;;;;;;;2.67;1.47;;;11.50;1.00;;;;;;5009201;28;20706;-90
2022/02/27 12:18:21;;;;;;;3.10;1.63;;;11.40;1.00;;;;;;5008800;28;20186;-92
2022/02/27 12:21:02;;;;;;;6.17;1.90;;;11.20;1.00;;;;;;5009816;28;20209;-90
2022/02/27 12:23:28;;;;;;;3.43;1.73;;;11.20;1.00;;;;;;5008952;28;20178;-90
2022/02/27 12:26:08;;;;;;;7.47;2.20;;;11.30;1.00;;;;;;5009348;28;20553;-88
2022/02/27 12:28:52;;;;;;;4.37;1.80;;;11.50;1.00;;;;;;5009883;28;20185;-89
2022/02/27 12:31:30;;;;;;;4.87;2.17;;;11.60;1.00;;;;;;5009517;28;20233;-89
2022/02/27 12:34:26;;;;;;;4.30;2.27;;;11.60;1.00;;;;;;5025074;28;20214;-90
2022/02/27 12:36:57;;;;;;;4.20;2.60;;;11.60;1.00;;;;;;5009323;28;20182;-89
2022/02/27 12:39:24;;;;;;;5.67;2.80;;;11.40;1.00;;;;;;4992856;28;20624;-90
2022/02/27 12:42:02;;;;;;;4.03;2.47;;;11.50;1.00;;;;;;5007367;28;20236;-90
2022/02/27 12:44:34;;;;;;;4.77;2.30;;;11.60;1.00;;;;;;5006148;28;20186;-89
2022/02/27 12:47:05;;;;;;;3.40;1.90;;;11.60;1.00;;;;;;5030500;28;20268;-89
2022/02/27 12:53:11;;;;;;;4.17;1.90;;;11.50;1.00;;;;;;5039052;28;20161;-88
2022/02/27 12:55:45;;;;;;;4.10;1.90;;;11.40;1.00;;;;;;5018400;28;20198;-88
2022/02/27 12:58:12;;;;;;;3.13;1.60;;;11.70;1.00;;;;;;5018596;28;20182;-90
2022/02/27 13:00:40;;;;;;;3.83;1.80;;;11.50;1.00;;;;;;5015437;28;20179;-89
2022/02/27 13:03:17;;;;;;;3.57;1.67;;;11.50;1.00;;;;;;5008254;28;20229;-88
2022/02/27 13:05:46;;;;;;;2.87;1.60;;;11.80;1.00;;;;;;5009249;28;20201;-90
2022/02/27 13:08:15;;;;;;;2.43;1.37;;;11.90;1.00;;;;;;5009083;28;20192;-90
2022/02/27 13:11:38;;;;;;;3.30;1.57;;;12.00;1.00;;;;;;5007445;28;20190;-89
2022/02/27 13:14:06;;;;;;;5.43;2.13;;;12.10;1.00;;;;;;4911174;29;20745;-90
2022/02/27 13:16:37;;;;;;;5.73;1.90;;;12.30;1.00;;;;;;4913970;29;20551;-89
2022/02/27 13:19:23;;;;;;;4.63;1.80;;;12.50;1.00;;;;;;4929307;29;20230;-90
2022/02/27 13:22:02;;;;;;;3.73;1.67;;;12.50;1.00;;;;;;4933891;29;20187;-89
2022/02/27 13:24:54;;;;;;;4.77;2.13;;;12.40;1.00;;;;;;4931550;29;20217;-89
2022/02/27 13:27:36;;;;;;;4.87;2.00;;;12.30;1.00;;;;;;4931202;29;20182;-90
2022/02/27 13:30:39;;;;;;;4.70;1.83;;;12.30;1.00;;;;;;4911225;29;20184;-89
2022/02/27 13:33:22;;;;;;;3.50;1.90;;;11.80;1.00;;;;;;5022955;28;20225;-89
2022/02/27 13:36:02;;;;;;;5.20;1.90;;;11.60;1.00;;;;;;5008124;28;20178;-90
2022/02/27 13:38:27;;;;;;;5.47;2.10;;;11.50;1.00;;;;;;5009142;28;20207;-90
2022/02/27 13:40:59;;;;;;;6.20;3.17;;;11.90;1.00;;;;;;5027154;28;20190;-89
2022/02/27 13:43:26;;;;;;;3.87;2.50;;;12.10;1.00;;;;;;5027145;28;20171;-90
2022/02/27 13:46:06;;;;;;;3.70;1.80;;;12.40;1.00;;;;;;5007856;28;20186;-90
2022/02/27 13:48:51;;;;;;;3.90;2.10;;;12.40;1.00;;;;;;5011609;28;20191;-87
2022/02/27 13:51:39;;;;;;;4.43;1.73;;;12.40;1.00;;;;;;5012990;28;20185;-88
2022/02/27 13:54:23;;;;;;;4.43;1.80;;;12.20;1.00;;;;;;5011648;28;20260;-90
2022/02/27 13:57:00;;;;;;;4.40;1.50;;;11.90;1.00;;;;;;5009354;28;20185;-88
2022/02/27 13:59:25;;;;;;;3.20;1.80;;;11.90;1.00;;;;;;5010602;28;20213;-88
2022/02/27 14:01:58;;;;;;;4.20;2.00;;;12.00;1.00;;;;;;5009487;28;20597;-89
2022/02/27 14:04:27;;;;;;;3.03;1.73;;;12.30;1.00;;;;;;5006798;28;20206;-90
2022/02/27 14:07:13;;;;;;;5.57;2.03;;;12.50;1.00;;;;;;5008268;28;20631;-89
2022/02/27 14:09:51;;;;;;;4.57;2.07;;;12.50;1.00;;;;;;5013641;28;20189;-88
2022/02/27 14:12:27;;;;;;;6.17;2.13;;;12.80;1.00;;;;;;5014976;28;20244;-87
2022/02/27 14:14:53;;;;;;;4.63;2.97;;;13.00;1.00;;;;;;5012976;28;20262;-89
2022/02/27 14:17:23;;;;;;;4.30;2.60;;;13.10;1.00;;;;;;5013402;28;20201;-87
2022/02/27 14:20:04;;;;;;;4.03;2.00;;;13.00;1.00;;;;;;5026757;28;20221;-88
2022/02/27 14:22:39;;;;;;;6.30;1.93;;;12.80;1.00;;;;;;5004012;28;20184;-88
2022/02/27 14:25:27;;;;;;;4.07;1.70;;;12.60;1.00;;;;;;5003205;28;20241;-89
2022/02/27 14:28:14;;;;;;;3.73;1.80;;;12.90;1.00;;;;;;5021000;28;20274;-88
2022/02/27 14:30:40;;;;;;;3.53;1.90;;;13.00;1.00;;;;;;5021375;28;20621;-89
2022/02/27 14:33:10;;;;;;;3.67;1.93;;;13.00;1.00;;;;;;5001764;28;20337;-90
2022/02/27 14:35:42;;;;;;;3.60;1.73;;;13.10;1.00;;;;;;5001590;28;20210;-90
2022/02/27 14:38:14;;;;;;;3.70;1.57;;;13.20;1.00;;;;;;5001391;28;20182;-88
2022/02/27 14:40:46;;;;;;;3.37;1.60;;;13.00;1.00;;;;;;5003041;28;20186;-89
2022/02/27 14:43:31;;;;;;;3.83;2.10;;;12.60;1.00;;;;;;5003051;28;20209;-89
2022/02/27 14:46:02;;;;;;;5.00;2.33;;;12.30;1.00;;;;;;5003727;28;20182;-90
2022/02/27 14:48:34;;;;;;;3.57;2.00;;;12.00;1.00;;;;;;5003211;28;20182;-90
2022/02/27 14:51:02;;;;;;;2.97;1.80;;;12.10;1.00;;;;;;5009472;28;20183;-88
2022/02/27 14:53:28;;;;;;;3.53;1.63;;;12.30;1.00;;;;;;5003988;28;20210;-89
2022/02/27 14:55:57;;;;;;;5.13;1.63;;;12.60;1.00;;;;;;5002281;28;20545;-90
2022/02/27 14:58:23;;;;;;;3.40;2.10;;;12.80;1.00;;;;;;5020717;28;20192;-89
2022/02/27 15:00:59;;;;;;;2.93;1.73;;;13.10;1.00;;;;;;5012518;28;20176;-89
2022/02/27 15:03:29;;;;;;;4.10;1.60;;;12.70;1.00;;;;;;5013980;28;20201;-89
2022/02/27 15:06:02;;;;;;;3.17;1.57;;;12.40;1.00;;;;;;5030465;28;20170;-89
2022/02/27 15:08:33;;;;;;;3.23;1.57;;;12.50;1.00;;;;;;5005543;28;20206;-89
2022/02/27 15:11:07;;;;;;;4.07;1.67;;;13.30;1.00;;;;;;5020442;28;20221;-88
2022/02/27 15:13:46;;;;;;;4.93;1.93;;;14.30;1.00;;;;;;5004713;28;20558;-88
2022/02/27 15:16:13;;;;;;;3.80;1.90;;;15.60;1.00;;;;;;5004537;28;20220;-88
2022/02/27 15:18:43;;;;;;;5.20;2.07;;;16.30;1.00;;;;;;5004393;28;20182;-88
2022/02/27 15:21:13;;;;;;;3.97;2.07;;;17.40;1.00;;;;;;4987138;28;20250;-88
2022/02/27 15:23:44;;;;;;;2.67;1.87;;;18.20;1.00;;;;;;5003145;28;20182;-89
2022/02/27 15:26:30;;;;;;;4.97;2.77;;;18.50;99.90;;;;;;5003418;28;20178;-88
2022/02/27 15:29:00;;;;;;;3.33;2.30;;;18.80;99.90;;;;;;5004093;28;20178;-90
2022/02/27 15:31:32;;;;;;;5.77;2.57;;;19.50;99.90;;;;;;5005785;28;20233;-88
2022/02/27 15:34:02;;;;;;;4.13;2.60;;;20.40;99.90;;;;;;5004452;28;20239;-89
2022/02/27 15:36:34;;;;;;;4.67;2.17;;;20.50;99.90;;;;;;5005086;28;20253;-89
2022/02/27 15:39:26;;;;;;;4.37;2.77;;;20.70;99.90;;;;;;5005072;28;20275;-89
2022/02/27 15:41:52;;;;;;;4.73;2.33;;;21.70;99.90;;;;;;4999744;28;20208;-89
2022/02/27 15:44:20;;;;;;;4.43;1.93;;;22.20;99.90;;;;;;5007897;28;20251;-88
2022/02/27 15:46:47;;;;;;;2.40;1.70;;;21.80;99.90;;;;;;5007048;28;20187;-90
2022/02/27 15:49:13;;;;;;;2.90;1.87;;;20.90;99.90;;;;;;5004552;28;20706;-88
2022/02/27 15:51:40;;;;;;;6.20;2.97;;;21.00;99.90;;;;;;5004880;28;20178;-89
2022/02/27 15:54:15;;;;;;;6.60;2.50;;;21.50;99.90;;;;;;5005508;28;20226;-90
2022/02/27 15:56:40;;;;;;;4.93;3.77;;;22.10;99.90;;;;;;5006141;28;20182;-89
2022/02/27 15:59:09;;;;;;;5.57;2.27;;;22.10;99.90;;;;;;5005307;28;20190;-86
2022/02/27 16:01:36;;;;;;;6.33;2.20;;;21.60;99.90;;;;;;5006005;28;20180;-89
2022/02/27 16:04:09;;;;;;;4.07;2.13;;;21.40;99.90;;;;;;5013812;28;20208;-88
2022/02/27 16:06:34;;;;;;;5.63;2.03;;;21.00;99.90;;;;;;5012943;28;20197;-89
2022/02/27 16:09:03;;;;;;;4.60;1.60;;;21.00;99.90;;;;;;5029036;28;20172;-89
2022/02/27 16:11:36;;;;;;;4.20;2.10;;;19.70;99.90;;;;;;5031128;28;20222;-89
2022/02/27 16:14:03;;;;;;;2.40;1.50;;;19.10;99.90;;;;;;5014978;28;20243;-89
2022/02/27 16:16:43;;;;;;;3.87;2.27;;;18.40;99.90;;;;;;4996043;28;20252;-90
2022/02/27 16:19:10;;;;;;;4.47;2.30;;;18.60;99.90;;;;;;5008163;28;20281;-89
2022/02/27 16:21:39;;;;;;;4.33;2.30;;;19.10;99.90;;;;;;5013685;28;20263;-90
2022/02/27 16:24:11;;;;;;;3.77;2.00;;;19.60;99.90;;;;;;4995103;28;20189;-89
2022/02/27 16:26:52;;;;;;;4.37;2.00;;;19.70;99.90;;;;;;5030373;28;20198;-90
2022/02/27 16:29:23;;;;;;;4.83;2.10;;;19.40;99.90;;;;;;5030952;28;20258;-90
2022/02/27 16:31:57;;;;;;;2.40;1.60;;;19.10;99.90;;;;;;5006912;28;20253;-90
2022/02/27 16:34:46;;;;;;;2.50;1.50;;;18.80;99.90;;;;;;5004647;28;20311;-89
2022/02/27 16:37:15;;;;;;;4.07;1.80;;;18.00;99.90;;;;;;5015411;28;20189;-90
2022/02/27 16:39:41;;;;;;;2.90;1.50;;;17.80;99.90;;;;;;5005434;28;20185;-89
2022/02/27 16:42:44;;;;;;;4.07;1.53;;;18.00;99.90;;;;;;5014738;28;20182;-89
2022/02/27 16:45:28;;;;;;;3.20;1.70;;;18.50;99.90;;;;;;5012152;28;20644;-90
2022/02/27 16:48:04;;;;;;;5.47;2.00;;;18.60;99.90;;;;;;5011412;28;20191;-90
2022/02/27 16:50:31;;;;;;;3.83;1.87;;;18.70;99.90;;;;;;5021490;28;20166;-89
2022/02/27 16:53:12;;;;;;;5.03;1.83;;;18.80;99.90;;;;;;5022274;28;20212;-89
2022/02/27 16:55:49;;;;;;;4.60;1.73;;;18.30;99.90;;;;;;5022101;28;20198;-89
2022/02/27 16:58:31;;;;;;;3.33;2.03;;;18.20;99.90;;;;;;5020913;28;20201;-88
2022/02/27 17:01:53;;;;;;;4.03;1.87;;;18.30;99.90;;;;;;5022510;28;20169;-89
2022/02/27 17:04:24;;;;;;;4.83;2.10;;;17.30;99.90;;;;;;5011706;28;20225;-89
2022/02/27 17:07:16;;;;;;;5.77;3.60;;;16.40;99.90;;;;;;5018643;28;20193;-90
2022/02/27 17:09:53;;;;;;;5.30;3.63;;;15.70;99.90;;;;;;5017427;28;20206;-90
2022/02/27 17:12:47;;;;;;;5.47;2.77;;;15.60;99.90;;;;;;5018895;28;20185;-88
2022/02/27 17:15:44;;;;;;;3.30;2.27;;;14.80;99.90;;;;;;5004086;28;20670;-89
2022/02/27 17:18:29;;;;;;;5.03;2.10;;;14.00;99.90;;;;;;5014674;28;20188;-90
2022/02/27 17:20:59;;;;;;;4.53;2.23;;;13.40;1.00;;;;;;5014516;28;20279;-88
2022/02/27 17:23:26;;;;;;;4.80;2.30;;;13.00;1.00;;;;;;5018102;28;20188;-92
2022/02/27 17:26:10;;;;;;;5.20;2.67;;;12.70;1.00;;;;;;5031034;28;20191;-90
2022/02/27 17:29:01;;;;;;;5.50;2.27;;;12.60;1.00;;;;;;5018411;28;20222;-91
2022/02/27 17:31:47;;;;;;;3.93;2.33;;;12.30;1.00;;;;;;5021070;28;20167;-91
2022/02/27 17:34:19;;;;;;;4.57;2.07;;;12.20;1.00;;;;;;5021392;28;20253;-89
2022/02/27 17:36:59;;;;;;;6.27;2.23;;;12.20;1.00;;;;;;5022055;28;20179;-91
2022/02/27 17:39:31;;;;;;;5.80;2.73;;;12.10;1.00;;;;;;5019671;28;20562;-92
2022/02/27 17:42:16;;;;;;;4.43;2.40;;;12.10;1.00;;;;;;5035879;28;20250;-90
2022/02/27 17:45:07;;;;;;;5.23;3.17;;;12.10;1.00;;;;;;5018800;28;20194;-90
2022/02/27 17:47:57;;;;;;;4.33;2.60;;;12.20;1.00;;;;;;5002317;28;20195;-91
2022/02/27 17:50:55;;;;;;;3.63;2.30;;;12.20;1.00;;;;;;5034803;28;20201;-90
2022/02/27 17:53:46;;;;;;;4.63;2.60;;;12.30;1.00;;;;;;5020119;28;20269;-92
2022/02/27 17:56:39;;;;;;;4.60;3.10;;;12.30;1.00;;;;;;5036745;28;20218;-90
2022/02/27 17:59:11;;;;;;;6.80;3.43;;;11.90;1.00;;;;;;5018494;28;20189;-90
2022/02/27 18:01:52;;;;;;;5.60;3.17;;;11.60;1.00;;;;;;5035271;28;20234;-90
2022/02/27 18:04:18;;;;;;;9.70;4.20;;;11.50;1.00;;;;;;5034055;28;20212;-90
2022/02/27 18:14:32;;;;;;;6.93;4.20;;;11.20;1.00;;;;;;5070548;28;20259;-90
2022/02/27 18:17:17;;;;;;;8.33;4.77;;;11.40;1.00;;;;;;5054424;28;20193;-91
2022/02/27 18:19:46;;;;;;;9.47;4.97;;;11.50;1.00;;;;;;5056999;28;20168;-90
2022/02/27 18:22:35;;;;;;;8.60;4.63;;;11.50;1.00;;;;;;5074413;28;20189;-90
2022/02/27 18:25:07;;;;;;;6.17;4.20;;;11.50;1.00;;;;;;5055908;28;20177;-90
2022/02/27 18:27:40;;;;;;;7.77;3.93;;;11.60;1.00;;;;;;5050491;28;20184;-90
2022/02/27 18:30:09;;;;;;;7.07;4.00;;;11.50;1.00;;;;;;5051046;28;20278;-91
2022/02/27 18:32:39;;;;;;;6.07;3.57;;;11.40;1.00;;;;;;5050912;28;20264;-91
2022/02/27 18:38:33;;;;;;;5.33;3.47;;;11.50;1.00;;;;;;5069545;28;20228;-91
2022/02/27 18:41:39;;;;;;;5.63;3.57;;;11.50;1.00;;;;;;5050576;28;20173;-90
2022/02/27 18:44:37;;;;;;;6.47;3.40;;;11.30;1.00;;;;;;5071550;28;20184;-91
2022/02/27 18:47:32;;;;;;;5.57;3.67;;;11.20;1.00;;;;;;5073581;28;20181;-91
2022/02/27 18:50:57;;;;;;;6.80;3.77;;;11.10;1.00;;;;;;5075157;28;20149;-91
2022/02/27 18:54:03;;;;;;;6.27;3.47;;;11.10;1.00;;;;;;5058589;23;20543;-90
2022/02/27 18:57:22;;;;;;;6.50;3.97;;;11.00;1.00;;;;;;5051708;28;20176;-90
2022/02/27 19:00:22;;;;;;;8.83;4.73;;;10.90;1.00;;;;;;5057100;28;20169;-90
2022/02/27 19:03:23;;;;;;;7.77;4.30;;;10.80;1.00;;;;;;5045342;28;20177;-90
2022/02/27 19:06:20;;;;;;;8.40;4.77;;;10.70;1.00;;;;;;5050435;28;20237;-90
2022/02/27 19:09:50;;;;;;;7.03;3.43;;;10.60;1.00;;;;;;5056588;28;20245;-91
2022/02/27 19:12:36;;;;;;;9.20;5.13;;;10.60;1.00;;;;;;5036302;28;20201;-92
2022/02/27 19:15:44;;;;;;;11.00;6.07;;;10.70;1.00;;;;;;5021438;28;20197;-90
2022/02/27 19:22:12;;;;;;;12.40;7.30;;;10.50;1.00;;;;;;5056929;28;20212;-91
2022/02/27 19:25:03;;;;;;;16.80;10.03;;;10.40;1.00;;;;;;5038922;28;20182;-92
2022/02/27 19:27:55;;;;;;;11.13;6.27;;;10.30;1.00;;;;;;5036281;28;20181;-90
2022/02/27 19:30:48;;;;;;;9.13;5.70;;;10.20;1.00;;;;;;5055955;28;20261;-91
2022/02/27 19:33:52;;;;;;;7.50;4.57;;;10.20;1.00;;;;;;5053988;28;20208;-91
2022/02/27 19:36:50;;;;;;;6.80;4.57;;;10.30;1.00;;;;;;5035415;28;20170;-90
2022/02/27 19:46:47;;;;;;;5.80;3.80;;;10.30;1.00;;;;;;5046138;28;20164;-90
2022/02/27 19:49:31;;;;;;;8.20;4.90;;;10.10;1.00;;;;;;5032160;28;20192;-90
2022/02/27 19:52:25;;;;;;;8.00;5.40;;;10.00;1.00;;;;;;5034496;28;20177;-90
2022/02/27 19:55:47;;;;;;;8.47;4.93;;;10.20;1.00;;;;;;5020743;28;20218;-91